sensor_id;sensor_type;location;lat;lon;timestamp;temperature;humidity
26212;DHT22;13951;49.516;6.094;2023-06-10T00:02:03;19.40;99.90
26212;DHT22;13951;49.516;6.094;2023-06-10T00:04:36;19.30;99.90
26212;DHT22;13951;49.516;6.094;2023-06-10T00:07:10;19.30;99.90
26212;DHT22;13951;49.516;6.094;2023-06-10T00:09:43;19.20;99.90
26212;DHT22;13951;49.516;6.094;2023-06-10T00:12:16;19.20;99.90
26212;DHT22;13951;49.516;6.094;2023-06-10T00:14:49;19.10;99.90
26212;DHT22;13951;49.516;6.094;2023-06-10T00:17:24;19.10;99.90
26212;DHT22;13951;49.516;6.094;2023-06-10T00:19:58;19.00;99.90
26212;DHT22;13951;49.516;6.094;2023-06-10T00:22:31;19.00;99.90
26212;DHT22;13951;49.516;6.094;2023-06-10T00:25:06;18.90;99.90
26212;DHT22;13951;49.516;6.094;2023-06-10T00:27:40;19.00;99.90
26212;DHT22;13951;49.516;6.094;2023-06-10T00:30:13;19.00;99.90
26212;DHT22;13951;49.516;6.094;2023-06-10T00:32:46;18.90;99.90
26212;DHT22;13951;49.516;6.094;2023-06-10T00:35:20;18.90;99.90
26212;DHT22;13951;49.516;6.094;2023-06-10T00:37:53;18.90;99.90
26212;DHT22;13951;49.516;6.094;2023-06-10T00:40:26;18.80;99.90
26212;DHT22;13951;49.516;6.094;2023-06-10T00:42:59;18.70;99.90
26212;DHT22;13951;49.516;6.094;2023-06-10T00:45:32;18.70;99.90
26212;DHT22;13951;49.516;6.094;2023-06-10T00:48:06;18.70;99.90
26212;DHT22;13951;49.516;6.094;2023-06-10T00:50:39;18.60;99.90
26212;DHT22;13951;49.516;6.094;2023-06-10T00:53:13;18.50;99.90
26212;DHT22;13951;49.516;6.094;2023-06-10T00:55:46;18.50;99.90
26212;DHT22;13951;49.516;6.094;2023-06-10T00:58:19;18.40;99.90
26212;DHT22;13951;49.516;6.094;2023-06-10T01:00:54;18.40;99.90
26212;DHT22;13951;49.516;6.094;2023-06-10T01:03:28;18.30;99.90
26212;DHT22;13951;49.516;6.094;2023-06-10T01:06:21;18.30;99.90
26212;DHT22;13951;49.516;6.094;2023-06-10T01:09:11;18.20;99.90
26212;DHT22;13951;49.516;6.094;2023-06-10T01:11:58;18.20;99.90
26212;DHT22;13951;49.516;6.094;2023-06-10T01:14:33;18.20;99.90
26212;DHT22;13951;49.516;6.094;2023-06-10T01:17:07;18.20;99.90
26212;DHT22;13951;49.516;6.094;2023-06-10T01:19:42;18.10;99.90
26212;DHT22;13951;49.516;6.094;2023-06-10T01:22:16;18.00;99.90
26212;DHT22;13951;49.516;6.094;2023-06-10T01:24:50;18.00;99.90
26212;DHT22;13951;49.516;6.094;2023-06-10T01:27:26;18.00;99.90
26212;DHT22;13951;49.516;6.094;2023-06-10T01:30:10;18.00;99.90
26212;DHT22;13951;49.516;6.094;2023-06-10T01:32:48;18.00;99.90
26212;DHT22;13951;49.516;6.094;2023-06-10T01:35:25;17.90;99.90
26212;DHT22;13951;49.516;6.094;2023-06-10T01:38:02;17.90;99.90
26212;DHT22;13951;49.516;6.094;2023-06-10T01:40:40;17.80;99.90
26212;DHT22;13951;49.516;6.094;2023-06-10T01:43:14;17.80;99.90
26212;DHT22;13951;49.516;6.094;2023-06-10T01:45:47;17.80;99.90
26212;DHT22;13951;49.516;6.094;2023-06-10T01:48:20;17.80;99.90
26212;DHT22;13951;49.516;6.094;2023-06-10T01:50:53;17.70;99.90
26212;DHT22;13951;49.516;6.094;2023-06-10T01:53:28;17.70;99.90
26212;DHT22;13951;49.516;6.094;2023-06-10T01:56:02;17.70;99.90
26212;DHT22;13951;49.516;6.094;2023-06-10T01:58:35;17.60;99.90
26212;DHT22;13951;49.516;6.094;2023-06-10T02:01:09;17.60;99.90
26212;DHT22;13951;49.516;6.094;2023-06-10T02:03:42;17.60;99.90
26212;DHT22;13951;49.516;6.094;2023-06-10T02:06:15;17.60;99.90
26212;DHT22;13951;49.516;6.094;2023-06-10T02:08:48;17.60;99.90
26212;DHT22;13951;49.516;6.094;2023-06-10T02:11:21;17.50;99.90
26212;DHT22;13951;49.516;6.094;2023-06-10T02:13:55;17.50;99.90
26212;DHT22;13951;49.516;6.094;2023-06-10T02:16:28;17.40;99.90
26212;DHT22;13951;49.516;6.094;2023-06-10T02:19:01;17.30;99.90
26212;DHT22;13951;49.516;6.094;2023-06-10T02:21:36;17.30;99.90
26212;DHT22;13951;49.516;6.094;2023-06-10T02:24:09;17.30;99.90
26212;DHT22;13951;49.516;6.094;2023-06-10T02:26:42;17.30;99.90
26212;DHT22;13951;49.516;6.094;2023-06-10T02:29:15;17.30;99.90
26212;DHT22;13951;49.516;6.094;2023-06-10T02:31:48;17.30;99.90
26212;DHT22;13951;49.516;6.094;2023-06-10T02:34:22;17.30;99.90
26212;DHT22;13951;49.516;6.094;2023-06-10T02:36:55;17.30;99.90
26212;DHT22;13951;49.516;6.094;2023-06-10T02:39:29;17.30;99.90
26212;DHT22;13951;49.516;6.094;2023-06-10T02:42:03;17.30;99.90
26212;DHT22;13951;49.516;6.094;2023-06-10T02:44:36;17.30;99.90
26212;DHT22;13951;49.516;6.094;2023-06-10T02:47:10;17.30;99.90
26212;DHT22;13951;49.516;6.094;2023-06-10T02:49:43;17.40;99.90
26212;DHT22;13951;49.516;6.094;2023-06-10T02:52:17;17.40;99.90
26212;DHT22;13951;49.516;6.094;2023-06-10T02:54:50;17.40;99.90
26212;DHT22;13951;49.516;6.094;2023-06-10T02:57:23;17.40;99.90
26212;DHT22;13951;49.516;6.094;2023-06-10T03:02:58;17.40;99.90
26212;DHT22;13951;49.516;6.094;2023-06-10T03:05:36;17.40;99.90
26212;DHT22;13951;49.516;6.094;2023-06-10T03:08:11;17.40;99.90
26212;DHT22;13951;49.516;6.094;2023-06-10T03:10:47;17.40;99.90
26212;DHT22;13951;49.516;6.094;2023-06-10T03:13:23;17.50;99.90
26212;DHT22;13951;49.516;6.094;2023-06-10T03:15:56;17.60;99.90
26212;DHT22;13951;49.516;6.094;2023-06-10T03:18:31;17.60;99.90
26212;DHT22;13951;49.516;6.094;2023-06-10T03:21:04;17.60;99.90
26212;DHT22;13951;49.516;6.094;2023-06-10T03:23:38;17.60;99.90
26212;DHT22;13951;49.516;6.094;2023-06-10T03:26:12;17.50;99.90
26212;DHT22;13951;49.516;6.094;2023-06-10T03:28:50;17.50;99.90
26212;DHT22;13951;49.516;6.094;2023-06-10T03:31:24;17.60;99.90
26212;DHT22;13951;49.516;6.094;2023-06-10T03:33:59;17.60;99.90
26212;DHT22;13951;49.516;6.094;2023-06-10T03:36:33;17.60;99.90
26212;DHT22;13951;49.516;6.094;2023-06-10T03:39:07;17.60;99.90
26212;DHT22;13951;49.516;6.094;2023-06-10T03:41:40;17.60;99.90
26212;DHT22;13951;49.516;6.094;2023-06-10T03:44:15;17.60;99.90
26212;DHT22;13951;49.516;6.094;2023-06-10T03:46:49;17.60;99.90
26212;DHT22;13951;49.516;6.094;2023-06-10T03:49:22;17.60;99.90
26212;DHT22;13951;49.516;6.094;2023-06-10T03:52:02;17.60;99.90
26212;DHT22;13951;49.516;6.094;2023-06-10T03:54:35;17.70;99.90
26212;DHT22;13951;49.516;6.094;2023-06-10T03:57:08;17.80;99.90
26212;DHT22;13951;49.516;6.094;2023-06-10T03:59:42;17.80;99.90
26212;DHT22;13951;49.516;6.094;2023-06-10T04:02:15;17.80;99.90
26212;DHT22;13951;49.516;6.094;2023-06-10T04:04:49;17.80;99.90
26212;DHT22;13951;49.516;6.094;2023-06-10T04:07:24;17.90;99.90
26212;DHT22;13951;49.516;6.094;2023-06-10T04:10:00;17.90;99.90
26212;DHT22;13951;49.516;6.094;2023-06-10T04:12:34;17.90;99.90
26212;DHT22;13951;49.516;6.094;2023-06-10T04:15:08;18.00;99.90
26212;DHT22;13951;49.516;6.094;2023-06-10T04:17:42;17.90;99.90
26212;DHT22;13951;49.516;6.094;2023-06-10T04:20:16;18.00;99.90
26212;DHT22;13951;49.516;6.094;2023-06-10T04:22:52;18.00;99.90
26212;DHT22;13951;49.516;6.094;2023-06-10T04:25:26;18.00;99.90
26212;DHT22;13951;49.516;6.094;2023-06-10T04:28:00;18.10;99.90
26212;DHT22;13951;49.516;6.094;2023-06-10T04:30:34;18.10;99.90
26212;DHT22;13951;49.516;6.094;2023-06-10T04:33:07;18.10;99.90
26212;DHT22;13951;49.516;6.094;2023-06-10T04:35:43;18.20;99.90
26212;DHT22;13951;49.516;6.094;2023-06-10T04:38:18;18.20;99.90
26212;DHT22;13951;49.516;6.094;2023-06-10T04:40:52;18.30;99.90
26212;DHT22;13951;49.516;6.094;2023-06-10T04:43:27;18.30;99.90
26212;DHT22;13951;49.516;6.094;2023-06-10T04:46:02;18.30;99.90
26212;DHT22;13951;49.516;6.094;2023-06-10T04:48:38;18.30;99.90
26212;DHT22;13951;49.516;6.094;2023-06-10T04:51:15;18.40;99.90
26212;DHT22;13951;49.516;6.094;2023-06-10T04:53:49;18.40;99.90
26212;DHT22;13951;49.516;6.094;2023-06-10T04:56:22;18.50;99.90
26212;DHT22;13951;49.516;6.094;2023-06-10T04:58:57;18.60;99.90
26212;DHT22;13951;49.516;6.094;2023-06-10T05:01:30;18.60;99.90
26212;DHT22;13951;49.516;6.094;2023-06-10T05:04:04;18.70;99.90
26212;DHT22;13951;49.516;6.094;2023-06-10T05:06:37;18.80;99.90
26212;DHT22;13951;49.516;6.094;2023-06-10T05:09:10;18.90;99.90
26212;DHT22;13951;49.516;6.094;2023-06-10T05:11:44;19.00;99.90
26212;DHT22;13951;49.516;6.094;2023-06-10T05:14:17;19.00;99.90
26212;DHT22;13951;49.516;6.094;2023-06-10T05:16:52;19.10;99.90
26212;DHT22;13951;49.516;6.094;2023-06-10T05:19:27;19.20;99.90
26212;DHT22;13951;49.516;6.094;2023-06-10T05:22:00;19.30;99.90
26212;DHT22;13951;49.516;6.094;2023-06-10T05:24:33;19.40;99.90
26212;DHT22;13951;49.516;6.094;2023-06-10T05:27:06;19.50;99.90
26212;DHT22;13951;49.516;6.094;2023-06-10T05:29:39;19.60;99.90
26212;DHT22;13951;49.516;6.094;2023-06-10T05:32:13;19.70;99.90
26212;DHT22;13951;49.516;6.094;2023-06-10T05:34:48;19.90;99.90
26212;DHT22;13951;49.516;6.094;2023-06-10T05:37:21;20.10;99.90
26212;DHT22;13951;49.516;6.094;2023-06-10T05:39:57;20.30;99.90
26212;DHT22;13951;49.516;6.094;2023-06-10T05:42:30;20.40;99.90
26212;DHT22;13951;49.516;6.094;2023-06-10T05:45:05;20.50;99.90
26212;DHT22;13951;49.516;6.094;2023-06-10T05:47:39;20.60;99.90
26212;DHT22;13951;49.516;6.094;2023-06-10T05:50:13;20.70;99.90
26212;DHT22;13951;49.516;6.094;2023-06-10T05:52:46;20.80;99.90
26212;DHT22;13951;49.516;6.094;2023-06-10T05:55:19;20.90;99.90
26212;DHT22;13951;49.516;6.094;2023-06-10T05:57:59;21.00;99.90
26212;DHT22;13951;49.516;6.094;2023-06-10T06:00:33;21.00;99.90
26212;DHT22;13951;49.516;6.094;2023-06-10T06:03:10;21.10;99.90
26212;DHT22;13951;49.516;6.094;2023-06-10T06:05:43;21.20;99.90
26212;DHT22;13951;49.516;6.094;2023-06-10T06:08:16;21.30;99.90
26212;DHT22;13951;49.516;6.094;2023-06-10T06:10:51;21.40;99.90
26212;DHT22;13951;49.516;6.094;2023-06-10T06:13:24;21.50;99.90
26212;DHT22;13951;49.516;6.094;2023-06-10T06:15:57;21.60;99.90
26212;DHT22;13951;49.516;6.094;2023-06-10T06:18:30;21.80;99.90
26212;DHT22;13951;49.516;6.094;2023-06-10T06:21:03;21.90;99.90
26212;DHT22;13951;49.516;6.094;2023-06-10T06:23:37;22.10;99.90
26212;DHT22;13951;49.516;6.094;2023-06-10T06:26:10;22.20;99.90
26212;DHT22;13951;49.516;6.094;2023-06-10T06:28:43;22.40;99.90
26212;DHT22;13951;49.516;6.094;2023-06-10T06:31:17;22.40;99.90
26212;DHT22;13951;49.516;6.094;2023-06-10T06:33:50;22.40;99.90
26212;DHT22;13951;49.516;6.094;2023-06-10T06:36:23;22.60;99.90
26212;DHT22;13951;49.516;6.094;2023-06-10T06:38:56;22.70;99.90
26212;DHT22;13951;49.516;6.094;2023-06-10T06:41:32;22.70;99.90
26212;DHT22;13951;49.516;6.094;2023-06-10T06:44:05;22.80;99.90
26212;DHT22;13951;49.516;6.094;2023-06-10T06:46:43;22.70;99.90
26212;DHT22;13951;49.516;6.094;2023-06-10T06:49:16;22.70;99.90
26212;DHT22;13951;49.516;6.094;2023-06-10T06:51:49;23.00;99.90
26212;DHT22;13951;49.516;6.094;2023-06-10T06:54:22;23.10;99.90
26212;DHT22;13951;49.516;6.094;2023-06-10T06:56:56;23.20;99.90
26212;DHT22;13951;49.516;6.094;2023-06-10T06:59:29;23.40;99.90
26212;DHT22;13951;49.516;6.094;2023-06-10T07:02:03;23.50;99.90
26212;DHT22;13951;49.516;6.094;2023-06-10T07:04:36;23.50;99.90
26212;DHT22;13951;49.516;6.094;2023-06-10T07:07:09;23.70;99.90
26212;DHT22;13951;49.516;6.094;2023-06-10T07:09:43;23.70;99.90
26212;DHT22;13951;49.516;6.094;2023-06-10T07:12:16;23.90;99.90
26212;DHT22;13951;49.516;6.094;2023-06-10T07:14:50;24.00;99.90
26212;DHT22;13951;49.516;6.094;2023-06-10T07:17:24;24.10;99.90
26212;DHT22;13951;49.516;6.094;2023-06-10T07:19:57;24.10;99.90
26212;DHT22;13951;49.516;6.094;2023-06-10T07:22:32;24.10;99.90
26212;DHT22;13951;49.516;6.094;2023-06-10T07:25:05;24.20;99.90
26212;DHT22;13951;49.516;6.094;2023-06-10T07:27:39;24.20;99.90
26212;DHT22;13951;49.516;6.094;2023-06-10T07:30:13;24.10;99.90
26212;DHT22;13951;49.516;6.094;2023-06-10T07:32:46;24.20;99.90
26212;DHT22;13951;49.516;6.094;2023-06-10T07:35:19;24.30;99.90
26212;DHT22;13951;49.516;6.094;2023-06-10T07:37:52;24.40;99.90
26212;DHT22;13951;49.516;6.094;2023-06-10T07:40:25;24.50;99.90
26212;DHT22;13951;49.516;6.094;2023-06-10T07:42:59;24.50;99.90
26212;DHT22;13951;49.516;6.094;2023-06-10T07:45:32;24.60;99.90
26212;DHT22;13951;49.516;6.094;2023-06-10T07:48:05;24.70;99.90
26212;DHT22;13951;49.516;6.094;2023-06-10T07:50:38;24.90;99.90
26212;DHT22;13951;49.516;6.094;2023-06-10T07:53:11;25.00;99.90
26212;DHT22;13951;49.516;6.094;2023-06-10T07:55:44;24.90;99.50
26212;DHT22;13951;49.516;6.094;2023-06-10T07:58:18;25.00;99.40
26212;DHT22;13951;49.516;6.094;2023-06-10T08:00:51;25.10;99.80
26212;DHT22;13951;49.516;6.094;2023-06-10T08:03:24;25.40;99.90
26212;DHT22;13951;49.516;6.094;2023-06-10T08:05:57;25.50;99.20
26212;DHT22;13951;49.516;6.094;2023-06-10T08:08:30;25.70;99.80
26212;DHT22;13951;49.516;6.094;2023-06-10T08:11:03;26.00;99.10
26212;DHT22;13951;49.516;6.094;2023-06-10T08:13:37;26.30;99.20
26212;DHT22;13951;49.516;6.094;2023-06-10T08:16:10;26.40;98.20
26212;DHT22;13951;49.516;6.094;2023-06-10T08:18:43;26.30;97.40
26212;DHT22;13951;49.516;6.094;2023-06-10T08:21:16;26.20;97.30
26212;DHT22;13951;49.516;6.094;2023-06-10T08:23:53;26.10;97.40
26212;DHT22;13951;49.516;6.094;2023-06-10T08:26:27;26.00;97.40
26212;DHT22;13951;49.516;6.094;2023-06-10T08:29:00;26.00;97.20
26212;DHT22;13951;49.516;6.094;2023-06-10T08:31:33;25.90;97.80
26212;DHT22;13951;49.516;6.094;2023-06-10T08:34:06;26.10;97.80
26212;DHT22;13951;49.516;6.094;2023-06-10T08:36:40;26.20;97.50
26212;DHT22;13951;49.516;6.094;2023-06-10T08:39:13;26.30;97.70
26212;DHT22;13951;49.516;6.094;2023-06-10T08:41:59;26.50;97.10
26212;DHT22;13951;49.516;6.094;2023-06-10T08:44:35;26.60;96.60
26212;DHT22;13951;49.516;6.094;2023-06-10T08:47:16;26.60;96.60
26212;DHT22;13951;49.516;6.094;2023-06-10T08:49:50;26.70;96.20
26212;DHT22;13951;49.516;6.094;2023-06-10T08:52:26;26.80;96.70
26212;DHT22;13951;49.516;6.094;2023-06-10T08:55:15;26.90;95.40
26212;DHT22;13951;49.516;6.094;2023-06-10T08:57:49;26.80;95.00
26212;DHT22;13951;49.516;6.094;2023-06-10T09:00:22;26.80;94.90
26212;DHT22;13951;49.516;6.094;2023-06-10T09:02:57;26.70;95.20
26212;DHT22;13951;49.516;6.094;2023-06-10T09:05:37;26.70;95.40
26212;DHT22;13951;49.516;6.094;2023-06-10T09:08:11;26.80;95.50
26212;DHT22;13951;49.516;6.094;2023-06-10T09:10:44;27.00;94.50
26212;DHT22;13951;49.516;6.094;2023-06-10T09:13:17;27.00;95.40
26212;DHT22;13951;49.516;6.094;2023-06-10T09:15:51;27.20;94.80
26212;DHT22;13951;49.516;6.094;2023-06-10T09:18:25;27.20;93.50
26212;DHT22;13951;49.516;6.094;2023-06-10T09:20:58;27.10;93.70
26212;DHT22;13951;49.516;6.094;2023-06-10T09:23:31;27.20;93.40
26212;DHT22;13951;49.516;6.094;2023-06-10T09:26:08;27.40;94.10
26212;DHT22;13951;49.516;6.094;2023-06-10T09:28:44;27.50;93.20
26212;DHT22;13951;49.516;6.094;2023-06-10T09:31:20;27.60;92.50
26212;DHT22;13951;49.516;6.094;2023-06-10T09:33:54;27.70;93.10
26212;DHT22;13951;49.516;6.094;2023-06-10T09:36:27;27.80;93.10
26212;DHT22;13951;49.516;6.094;2023-06-10T09:39:02;27.90;92.40
26212;DHT22;13951;49.516;6.094;2023-06-10T09:41:40;27.80;92.20
26212;DHT22;13951;49.516;6.094;2023-06-10T09:44:15;27.70;92.30
26212;DHT22;13951;49.516;6.094;2023-06-10T09:46:50;27.80;92.50
26212;DHT22;13951;49.516;6.094;2023-06-10T09:49:29;28.00;91.60
26212;DHT22;13951;49.516;6.094;2023-06-10T09:52:05;27.90;91.70
26212;DHT22;13951;49.516;6.094;2023-06-10T09:54:38;27.90;91.80
26212;DHT22;13951;49.516;6.094;2023-06-10T09:57:16;27.90;92.30
26212;DHT22;13951;49.516;6.094;2023-06-10T09:59:54;28.00;91.80
26212;DHT22;13951;49.516;6.094;2023-06-10T10:02:28;28.10;91.20
26212;DHT22;13951;49.516;6.094;2023-06-10T10:05:04;28.20;90.90
26212;DHT22;13951;49.516;6.094;2023-06-10T10:07:40;28.40;91.30
26212;DHT22;13951;49.516;6.094;2023-06-10T10:10:17;28.60;90.70
26212;DHT22;13951;49.516;6.094;2023-06-10T10:12:54;28.60;90.10
26212;DHT22;13951;49.516;6.094;2023-06-10T10:15:31;28.80;90.40
26212;DHT22;13951;49.516;6.094;2023-06-10T10:18:10;28.90;87.90
26212;DHT22;13951;49.516;6.094;2023-06-10T10:20:47;29.00;90.10
26212;DHT22;13951;49.516;6.094;2023-06-10T10:23:29;29.20;87.70
26212;DHT22;13951;49.516;6.094;2023-06-10T10:26:07;29.40;92.60
26212;DHT22;13951;49.516;6.094;2023-06-10T10:28:51;29.00;92.20
26212;DHT22;13951;49.516;6.094;2023-06-10T10:31:27;29.00;92.10
26212;DHT22;13951;49.516;6.094;2023-06-10T10:34:07;29.10;91.70
26212;DHT22;13951;49.516;6.094;2023-06-10T10:36:42;29.20;92.80
26212;DHT22;13951;49.516;6.094;2023-06-10T10:39:15;29.50;91.90
26212;DHT22;13951;49.516;6.094;2023-06-10T10:41:49;29.70;91.20
26212;DHT22;13951;49.516;6.094;2023-06-10T10:44:23;29.70;91.90
26212;DHT22;13951;49.516;6.094;2023-06-10T10:47:02;29.70;89.10
26212;DHT22;13951;49.516;6.094;2023-06-10T10:49:38;29.70;89.80
26212;DHT22;13951;49.516;6.094;2023-06-10T10:52:12;29.60;89.70
26212;DHT22;13951;49.516;6.094;2023-06-10T10:54:46;29.40;89.90
26212;DHT22;13951;49.516;6.094;2023-06-10T10:57:24;29.30;90.10
26212;DHT22;13951;49.516;6.094;2023-06-10T10:59:58;29.40;90.50
26212;DHT22;13951;49.516;6.094;2023-06-10T11:02:41;29.40;90.80
26212;DHT22;13951;49.516;6.094;2023-06-10T11:05:17;29.60;90.30
26212;DHT22;13951;49.516;6.094;2023-06-10T11:07:54;29.70;87.20
26212;DHT22;13951;49.516;6.094;2023-06-10T11:10:51;29.70;88.70
26212;DHT22;13951;49.516;6.094;2023-06-10T11:13:28;30.00;89.60
26212;DHT22;13951;49.516;6.094;2023-06-10T11:16:04;30.10;89.30
26212;DHT22;13951;49.516;6.094;2023-06-10T11:18:40;30.20;89.30
26212;DHT22;13951;49.516;6.094;2023-06-10T11:21:16;30.30;90.10
26212;DHT22;13951;49.516;6.094;2023-06-10T11:23:50;30.30;88.40
26212;DHT22;13951;49.516;6.094;2023-06-10T11:29:15;30.40;88.40
26212;DHT22;13951;49.516;6.094;2023-06-10T11:31:50;30.50;90.00
26212;DHT22;13951;49.516;6.094;2023-06-10T11:34:24;30.70;90.10
26212;DHT22;13951;49.516;6.094;2023-06-10T11:37:00;30.80;90.60
26212;DHT22;13951;49.516;6.094;2023-06-10T11:39:33;30.80;89.50
26212;DHT22;13951;49.516;6.094;2023-06-10T11:42:07;30.60;91.20
26212;DHT22;13951;49.516;6.094;2023-06-10T11:44:51;30.80;90.00
26212;DHT22;13951;49.516;6.094;2023-06-10T11:47:24;30.70;86.30
26212;DHT22;13951;49.516;6.094;2023-06-10T11:49:58;30.60;86.70
26212;DHT22;13951;49.516;6.094;2023-06-10T11:52:32;30.50;88.00
26212;DHT22;13951;49.516;6.094;2023-06-10T11:55:10;30.40;87.60
26212;DHT22;13951;49.516;6.094;2023-06-10T11:57:44;30.60;86.10
26212;DHT22;13951;49.516;6.094;2023-06-10T12:00:18;30.50;85.30
26212;DHT22;13951;49.516;6.094;2023-06-10T12:02:56;30.40;85.10
26212;DHT22;13951;49.516;6.094;2023-06-10T12:05:30;30.40;85.90
26212;DHT22;13951;49.516;6.094;2023-06-10T12:08:11;30.20;85.40
26212;DHT22;13951;49.516;6.094;2023-06-10T12:10:44;30.30;86.60
26212;DHT22;13951;49.516;6.094;2023-06-10T12:13:17;30.20;89.00
26212;DHT22;13951;49.516;6.094;2023-06-10T12:15:50;30.30;85.10
26212;DHT22;13951;49.516;6.094;2023-06-10T12:18:24;30.20;85.60
26212;DHT22;13951;49.516;6.094;2023-06-10T12:20:57;30.20;87.80
26212;DHT22;13951;49.516;6.094;2023-06-10T12:23:31;30.30;87.10
26212;DHT22;13951;49.516;6.094;2023-06-10T12:26:05;30.10;85.00
26212;DHT22;13951;49.516;6.094;2023-06-10T12:28:38;30.10;86.30
26212;DHT22;13951;49.516;6.094;2023-06-10T12:31:11;30.10;88.10
26212;DHT22;13951;49.516;6.094;2023-06-10T12:33:45;30.10;86.50
26212;DHT22;13951;49.516;6.094;2023-06-10T12:36:22;30.00;87.50
26212;DHT22;13951;49.516;6.094;2023-06-10T12:39:03;29.90;85.50
26212;DHT22;13951;49.516;6.094;2023-06-10T12:41:37;29.90;86.60
26212;DHT22;13951;49.516;6.094;2023-06-10T12:44:10;29.90;86.10
26212;DHT22;13951;49.516;6.094;2023-06-10T12:46:44;29.90;85.70
26212;DHT22;13951;49.516;6.094;2023-06-10T12:49:20;29.80;86.00
26212;DHT22;13951;49.516;6.094;2023-06-10T12:51:54;29.80;86.50
26212;DHT22;13951;49.516;6.094;2023-06-10T12:54:27;29.90;87.60
26212;DHT22;13951;49.516;6.094;2023-06-10T12:57:00;29.90;86.70
26212;DHT22;13951;49.516;6.094;2023-06-10T12:59:33;29.80;85.20
26212;DHT22;13951;49.516;6.094;2023-06-10T13:02:06;29.40;84.50
26212;DHT22;13951;49.516;6.094;2023-06-10T13:04:40;29.00;83.80
26212;DHT22;13951;49.516;6.094;2023-06-10T13:07:13;28.60;85.00
26212;DHT22;13951;49.516;6.094;2023-06-10T13:09:46;28.40;86.10
26212;DHT22;13951;49.516;6.094;2023-06-10T13:12:22;28.40;86.40
26212;DHT22;13951;49.516;6.094;2023-06-10T13:15:10;28.50;85.20
26212;DHT22;13951;49.516;6.094;2023-06-10T13:17:44;28.50;86.40
26212;DHT22;13951;49.516;6.094;2023-06-10T13:20:23;28.50;86.00
26212;DHT22;13951;49.516;6.094;2023-06-10T13:22:56;28.60;87.70
26212;DHT22;13951;49.516;6.094;2023-06-10T13:25:29;28.60;87.10
26212;DHT22;13951;49.516;6.094;2023-06-10T13:28:02;28.70;87.60
26212;DHT22;13951;49.516;6.094;2023-06-10T13:30:36;28.70;86.30
26212;DHT22;13951;49.516;6.094;2023-06-10T13:33:09;28.80;86.20
26212;DHT22;13951;49.516;6.094;2023-06-10T13:35:42;28.80;87.00
26212;DHT22;13951;49.516;6.094;2023-06-10T13:38:15;28.80;87.30
26212;DHT22;13951;49.516;6.094;2023-06-10T13:40:48;28.80;86.30
26212;DHT22;13951;49.516;6.094;2023-06-10T13:43:22;28.70;86.40
26212;DHT22;13951;49.516;6.094;2023-06-10T13:45:55;28.60;86.50
26212;DHT22;13951;49.516;6.094;2023-06-10T13:48:28;28.50;85.60
26212;DHT22;13951;49.516;6.094;2023-06-10T13:51:01;28.50;86.00
26212;DHT22;13951;49.516;6.094;2023-06-10T13:53:34;28.50;86.90
26212;DHT22;13951;49.516;6.094;2023-06-10T13:56:08;28.60;86.10
26212;DHT22;13951;49.516;6.094;2023-06-10T13:58:42;28.60;86.10
26212;DHT22;13951;49.516;6.094;2023-06-10T14:01:15;28.60;87.20
26212;DHT22;13951;49.516;6.094;2023-06-10T14:03:50;28.70;86.20
26212;DHT22;13951;49.516;6.094;2023-06-10T14:06:23;28.70;85.10
26212;DHT22;13951;49.516;6.094;2023-06-10T14:08:56;28.60;84.70
26212;DHT22;13951;49.516;6.094;2023-06-10T14:11:29;28.50;85.10
26212;DHT22;13951;49.516;6.094;2023-06-10T14:14:06;28.30;85.90
26212;DHT22;13951;49.516;6.094;2023-06-10T14:16:39;28.10;84.60
26212;DHT22;13951;49.516;6.094;2023-06-10T14:19:15;28.10;85.20
26212;DHT22;13951;49.516;6.094;2023-06-10T14:21:48;28.20;86.00
26212;DHT22;13951;49.516;6.094;2023-06-10T14:24:22;28.20;85.30
26212;DHT22;13951;49.516;6.094;2023-06-10T14:26:56;28.30;86.70
26212;DHT22;13951;49.516;6.094;2023-06-10T14:29:31;28.50;86.70
26212;DHT22;13951;49.516;6.094;2023-06-10T14:32:05;28.60;85.50
26212;DHT22;13951;49.516;6.094;2023-06-10T14:34:41;28.60;86.80
26212;DHT22;13951;49.516;6.094;2023-06-10T14:37:15;28.70;86.30
26212;DHT22;13951;49.516;6.094;2023-06-10T14:39:48;28.80;85.50
26212;DHT22;13951;49.516;6.094;2023-06-10T14:42:21;28.70;86.10
26212;DHT22;13951;49.516;6.094;2023-06-10T14:44:55;28.70;84.50
26212;DHT22;13951;49.516;6.094;2023-06-10T14:47:28;28.40;84.20
26212;DHT22;13951;49.516;6.094;2023-06-10T14:50:01;28.30;83.60
26212;DHT22;13951;49.516;6.094;2023-06-10T14:52:34;28.20;83.90
26212;DHT22;13951;49.516;6.094;2023-06-10T14:55:07;28.30;84.00
26212;DHT22;13951;49.516;6.094;2023-06-10T14:57:41;28.20;84.20
26212;DHT22;13951;49.516;6.094;2023-06-10T15:00:16;28.20;85.60
26212;DHT22;13951;49.516;6.094;2023-06-10T15:02:52;28.20;86.00
26212;DHT22;13951;49.516;6.094;2023-06-10T15:05:28;28.20;85.70
26212;DHT22;13951;49.516;6.094;2023-06-10T15:08:01;28.30;85.30
26212;DHT22;13951;49.516;6.094;2023-06-10T15:10:36;28.30;85.70
26212;DHT22;13951;49.516;6.094;2023-06-10T15:13:09;28.40;84.80
26212;DHT22;13951;49.516;6.094;2023-06-10T15:15:42;28.50;83.70
26212;DHT22;13951;49.516;6.094;2023-06-10T15:18:15;28.40;82.30
26212;DHT22;13951;49.516;6.094;2023-06-10T15:20:48;28.30;82.10
26212;DHT22;13951;49.516;6.094;2023-06-10T15:23:21;28.10;82.60
26212;DHT22;13951;49.516;6.094;2023-06-10T15:25:54;28.10;82.00
26212;DHT22;13951;49.516;6.094;2023-06-10T15:28:27;28.10;81.30
26212;DHT22;13951;49.516;6.094;2023-06-10T15:31:01;28.10;82.30
26212;DHT22;13951;49.516;6.094;2023-06-10T15:33:34;28.20;82.00
26212;DHT22;13951;49.516;6.094;2023-06-10T15:36:07;28.20;82.30
26212;DHT22;13951;49.516;6.094;2023-06-10T15:38:40;28.20;82.70
26212;DHT22;13951;49.516;6.094;2023-06-10T15:41:13;28.20;82.10
26212;DHT22;13951;49.516;6.094;2023-06-10T15:43:46;28.20;82.00
26212;DHT22;13951;49.516;6.094;2023-06-10T15:46:20;28.30;83.00
26212;DHT22;13951;49.516;6.094;2023-06-10T15:48:53;28.30;82.70
26212;DHT22;13951;49.516;6.094;2023-06-10T15:51:26;28.30;81.80
26212;DHT22;13951;49.516;6.094;2023-06-10T15:53:59;28.40;82.00
26212;DHT22;13951;49.516;6.094;2023-06-10T15:56:33;28.40;82.70
26212;DHT22;13951;49.516;6.094;2023-06-10T15:59:06;28.50;81.80
26212;DHT22;13951;49.516;6.094;2023-06-10T16:02:01;28.40;82.60
26212;DHT22;13951;49.516;6.094;2023-06-10T16:04:39;28.20;82.90
26212;DHT22;13951;49.516;6.094;2023-06-10T16:07:12;28.10;82.70
26212;DHT22;13951;49.516;6.094;2023-06-10T16:09:45;28.00;83.60
26212;DHT22;13951;49.516;6.094;2023-06-10T16:12:18;27.90;84.10
26212;DHT22;13951;49.516;6.094;2023-06-10T16:14:52;27.90;84.80
26212;DHT22;13951;49.516;6.094;2023-06-10T16:17:25;27.80;84.20
26212;DHT22;13951;49.516;6.094;2023-06-10T16:19:58;27.80;84.50
26212;DHT22;13951;49.516;6.094;2023-06-10T16:22:32;27.80;85.10